Terminal Aerodrome Forecast
Issued by NWS Twin Cities, MN

Home | Current Version | Previous Version | Graphics & Text | Print | Product List | Glossary On
Versions: 1 2 3 4 5 6 7 8 9 10 11 12 13 14 15 16 17 18 19 20 21 22 23 24 25 26 27
000
FTUS43 KMPX 160302 AAA
TAFMSP
TAF AMD
KMSP 160302Z 1603/1706 13006KT 5SM -SHSN OVC035
      TEMPO 1603/1606 2SM -SN BKN025
     FM160600 11004KT P6SM VCSH OVC025
     FM160800 10004KT P6SM OVC025
     FM170300 VRB03KT P6SM OVC020=

USA.gov is the U.S. government's official web portal to all federal, state and local government web resources and services.